Time;durP1;ratioP1;P1;durP2;ratioP2;P2;SDS_P1;SDS_P2;PMS_P1;PMS_P2;Temp;Humidity;BMP_temperature;BMP_pressure;BME280_temperature;BME280_humidity;BME280_pressure;Samples;Min_cycle;Max_cycle;Signal;HPM_P1;HPM_P2
2023/03/03 00:00:51;;;;;;;9.35;2.30;;;;;;;;;;4920616;29;20048;-66
2023/03/03 00:03:19;;;;;;;9.05;3.20;;;;;;;;;;4919977;29;20047;-66
2023/03/03 00:05:45;;;;;;;6.68;3.00;;;;;;;;;;4921041;29;20075;-66
2023/03/03 00:08:11;;;;;;;8.68;3.22;;;;;;;;;;4903997;29;20216;-67
2023/03/03 00:10:38;;;;;;;5.70;3.13;;;;;;;;;;4920169;29;20047;-67
2023/03/03 00:13:06;;;;;;;10.10;2.70;;;;;;;;;;4920043;29;20047;-67
2023/03/03 00:15:32;;;;;;;5.88;2.75;;;;;;;;;;4921364;29;20051;-67
2023/03/03 00:17:59;;;;;;;6.57;4.05;;;;;;;;;;4902014;29;20048;-68
2023/03/03 00:20:25;;;;;;;6.68;3.75;;;;;;;;;;4921203;29;20055;-67
2023/03/03 00:22:51;;;;;;;8.07;3.20;;;;;;;;;;4909039;29;20107;-67
2023/03/03 00:25:18;;;;;;;8.00;3.47;;;;;;;;;;4920808;29;20055;-67
2023/03/03 00:27:45;;;;;;;9.25;3.30;;;;;;;;;;4921648;29;20050;-67
2023/03/03 00:30:24;;;;;;;7.90;3.10;;;;;;;;;;4913052;29;20495;-67
2023/03/03 00:32:51;;;;;;;8.07;3.03;;;;;;;;;;4920952;29;20090;-67
2023/03/03 00:35:23;;;;;;;7.05;3.25;;;;;;;;;;4920812;29;20063;-67
2023/03/03 00:37:54;;;;;;;5.10;2.55;;;;;;;;;;4918705;29;20055;-67
2023/03/03 00:40:22;;;;;;;11.13;3.10;;;;;;;;;;4917181;29;20436;-67
2023/03/03 00:42:52;;;;;;;32.95;6.93;;;;;;;;;;4920124;29;20079;-67
2023/03/03 00:45:23;;;;;;;29.25;5.10;;;;;;;;;;4918375;29;20503;-67
2023/03/03 00:47:50;;;;;;;36.22;5.38;;;;;;;;;;4920236;29;20098;-67
2023/03/03 00:50:16;;;;;;;72.18;6.47;;;;;;;;;;4919638;29;20070;-67
2023/03/03 00:52:45;;;;;;;57.40;6.50;;;;;;;;;;4921504;29;20044;-67
2023/03/03 00:55:12;;;;;;;16.45;7.72;;;;;;;;;;4919950;29;20048;-67
2023/03/03 00:57:38;;;;;;;32.92;5.53;;;;;;;;;;4917993;29;20052;-67
2023/03/03 01:00:04;;;;;;;6.57;3.65;;;;;;;;;;4920344;29;20365;-67
2023/03/03 01:02:30;;;;;;;4.60;2.67;;;;;;;;;;4919900;29;20047;-67
2023/03/03 01:04:56;;;;;;;6.40;3.25;;;;;;;;;;4913994;29;20510;-67
2023/03/03 01:07:23;;;;;;;4.65;2.88;;;;;;;;;;4918362;29;20102;-67
2023/03/03 01:09:49;;;;;;;4.68;2.80;;;;;;;;;;4917617;29;20048;-67
2023/03/03 01:12:15;;;;;;;6.88;3.08;;;;;;;;;;4919221;29;20091;-67
2023/03/03 01:14:44;;;;;;;5.78;3.55;;;;;;;;;;4920075;29;20052;-67
2023/03/03 01:17:10;;;;;;;5.68;3.13;;;;;;;;;;4921933;29;20040;-67
2023/03/03 01:19:36;;;;;;;4.47;2.80;;;;;;;;;;4917303;29;20056;-67
2023/03/03 01:22:02;;;;;;;4.65;2.67;;;;;;;;;;4932759;28;20138;-67
2023/03/03 01:24:28;;;;;;;5.30;2.83;;;;;;;;;;4918599;29;20456;-67
2023/03/03 01:26:54;;;;;;;4.25;2.67;;;;;;;;;;4915012;29;20044;-67
2023/03/03 01:29:21;;;;;;;6.28;2.90;;;;;;;;;;4917296;29;20066;-67
2023/03/03 01:31:47;;;;;;;6.97;2.90;;;;;;;;;;4921610;29;20054;-67
2023/03/03 01:34:13;;;;;;;5.15;3.08;;;;;;;;;;4918079;29;20040;-67
2023/03/03 01:36:39;;;;;;;8.10;4.20;;;;;;;;;;4920578;29;21229;-67
2023/03/03 01:39:05;;;;;;;6.55;3.78;;;;;;;;;;4922465;29;20069;-67
2023/03/03 01:41:32;;;;;;;8.75;3.53;;;;;;;;;;4917925;29;20036;-67
2023/03/03 01:43:59;;;;;;;8.90;4.25;;;;;;;;;;4916160;29;20044;-67
2023/03/03 01:46:31;;;;;;;7.68;4.75;;;;;;;;;;4919214;29;21448;-67
2023/03/03 01:49:02;;;;;;;8.93;4.55;;;;;;;;;;4919965;29;21243;-67
2023/03/03 01:51:30;;;;;;;9.32;3.53;;;;;;;;;;4919291;29;20495;-67
2023/03/03 01:54:00;;;;;;;7.85;3.88;;;;;;;;;;4921540;29;20044;-67
2023/03/03 01:56:27;;;;;;;5.95;3.45;;;;;;;;;;4906005;29;20055;-67
2023/03/03 01:58:58;;;;;;;5.18;3.25;;;;;;;;;;4905357;29;20123;-67
2023/03/03 02:01:27;;;;;;;9.23;3.65;;;;;;;;;;4919140;29;20051;-67
2023/03/03 02:03:53;;;;;;;8.52;3.17;;;;;;;;;;4918400;29;20471;-67
2023/03/03 02:06:21;;;;;;;5.28;3.15;;;;;;;;;;4900466;29;20113;-67
2023/03/03 02:08:53;;;;;;;5.35;3.25;;;;;;;;;;4918678;29;20155;-67
2023/03/03 02:11:20;;;;;;;6.07;3.15;;;;;;;;;;4915790;29;20079;-67
2023/03/03 02:13:47;;;;;;;4.85;3.42;;;;;;;;;;4917199;29;20047;-67
2023/03/03 02:16:13;;;;;;;6.90;3.65;;;;;;;;;;4918820;29;20039;-67
2023/03/03 02:18:39;;;;;;;5.28;3.15;;;;;;;;;;4916183;29;20182;-67
2023/03/03 02:21:08;;;;;;;6.78;3.47;;;;;;;;;;4905027;29;20044;-67
2023/03/03 02:23:38;;;;;;;6.25;2.92;;;;;;;;;;4905038;29;20055;-67
2023/03/03 02:26:05;;;;;;;6.28;2.88;;;;;;;;;;4913211;29;20051;-67
2023/03/03 02:28:33;;;;;;;12.93;4.55;;;;;;;;;;4903737;29;20511;-67
2023/03/03 02:31:00;;;;;;;6.15;2.80;;;;;;;;;;4920907;29;20063;-67
2023/03/03 02:33:26;;;;;;;7.53;2.50;;;;;;;;;;4922069;29;20075;-67
2023/03/03 02:35:53;;;;;;;4.72;2.38;;;;;;;;;;4920657;29;20052;-67
2023/03/03 02:38:20;;;;;;;7.13;2.25;;;;;;;;;;4919726;29;20055;-67
2023/03/03 02:40:53;;;;;;;7.72;2.88;;;;;;;;;;4923148;29;20470;-67
2023/03/03 02:43:20;;;;;;;6.32;2.60;;;;;;;;;;4919237;29;20111;-67
2023/03/03 02:45:46;;;;;;;10.63;2.75;;;;;;;;;;4919184;29;20495;-67
2023/03/03 02:48:12;;;;;;;7.50;1.95;;;;;;;;;;4911487;29;20043;-67
2023/03/03 02:50:38;;;;;;;6.53;1.88;;;;;;;;;;4905459;29;20135;-67
2023/03/03 02:53:05;;;;;;;5.35;2.10;;;;;;;;;;4907994;29;20465;-67
2023/03/03 02:55:31;;;;;;;3.40;1.48;;;;;;;;;;4923818;29;20452;-67
2023/03/03 02:57:57;;;;;;;3.78;1.50;;;;;;;;;;4920519;29;20110;-67
2023/03/03 03:00:23;;;;;;;5.15;1.73;;;;;;;;;;4921783;29;20048;-67
2023/03/03 03:02:49;;;;;;;5.55;1.13;;;;;;;;;;4919397;29;20071;-67
2023/03/03 03:05:15;;;;;;;4.07;1.13;;;;;;;;;;4903669;29;20060;-67
2023/03/03 03:07:41;;;;;;;9.05;1.60;;;;;;;;;;4919282;29;20071;-67
2023/03/03 03:10:08;;;;;;;4.55;1.40;;;;;;;;;;4910619;29;20058;-67
2023/03/03 03:12:34;;;;;;;4.85;1.88;;;;;;;;;;4925808;29;20043;-67
2023/03/03 03:15:00;;;;;;;6.32;1.35;;;;;;;;;;4906576;29;20062;-67
2023/03/03 03:17:26;;;;;;;9.02;1.92;;;;;;;;;;4921615;29;20100;-67
2023/03/03 03:19:53;;;;;;;3.00;1.10;;;;;;;;;;4916721;29;20056;-67
2023/03/03 03:22:19;;;;;;;3.28;1.55;;;;;;;;;;4925083;29;20059;-67
2023/03/03 03:24:45;;;;;;;9.10;1.70;;;;;;;;;;4907157;29;20048;-67
2023/03/03 03:27:11;;;;;;;7.93;1.98;;;;;;;;;;4921144;29;20509;-67
2023/03/03 03:29:37;;;;;;;5.60;1.67;;;;;;;;;;4921628;29;20170;-67
2023/03/03 03:32:04;;;;;;;7.57;2.13;;;;;;;;;;4920956;29;20087;-67
2023/03/03 03:34:30;;;;;;;3.22;1.55;;;;;;;;;;4919724;29;20136;-67
2023/03/03 03:36:56;;;;;;;7.90;1.60;;;;;;;;;;4922141;29;20051;-67
2023/03/03 03:39:22;;;;;;;5.28;1.73;;;;;;;;;;4925245;29;20047;-67
2023/03/03 03:41:48;;;;;;;7.30;1.98;;;;;;;;;;4910298;29;20044;-67
2023/03/03 03:44:14;;;;;;;8.75;1.83;;;;;;;;;;4926741;29;20044;-67
2023/03/03 03:46:40;;;;;;;4.05;1.60;;;;;;;;;;4910247;29;20063;-67
2023/03/03 03:49:07;;;;;;;3.78;1.63;;;;;;;;;;4926201;29;20515;-67
2023/03/03 03:51:34;;;;;;;3.75;1.40;;;;;;;;;;4921201;29;20040;-67
2023/03/03 03:54:00;;;;;;;4.72;1.70;;;;;;;;;;4907451;29;20047;-67
2023/03/03 03:56:26;;;;;;;3.88;1.70;;;;;;;;;;4918295;29;20124;-67
2023/03/03 03:58:52;;;;;;;4.47;1.98;;;;;;;;;;4919277;29;20126;-67
2023/03/03 04:01:19;;;;;;;2.95;1.40;;;;;;;;;;4922023;29;20107;-67
2023/03/03 04:03:45;;;;;;;20.52;2.63;;;;;;;;;;4923464;29;20553;-67
2023/03/03 04:06:11;;;;;;;6.53;1.85;;;;;;;;;;4918983;29;20471;-67
2023/03/03 04:08:37;;;;;;;5.38;1.80;;;;;;;;;;4920498;29;20066;-67
2023/03/03 04:11:03;;;;;;;5.13;2.08;;;;;;;;;;4917292;29;20055;-67
2023/03/03 04:13:30;;;;;;;9.65;2.45;;;;;;;;;;4917394;29;20066;-67
2023/03/03 04:15:57;;;;;;;3.60;1.48;;;;;;;;;;4907798;29;20159;-67
2023/03/03 04:18:23;;;;;;;4.80;1.60;;;;;;;;;;4904828;29;20138;-67
2023/03/03 04:20:51;;;;;;;5.20;1.73;;;;;;;;;;4895107;29;21550;-67
2023/03/03 04:23:18;;;;;;;3.33;1.60;;;;;;;;;;4919244;29;20055;-67
2023/03/03 04:25:45;;;;;;;4.65;2.15;;;;;;;;;;4919358;29;20055;-67
2023/03/03 04:28:12;;;;;;;5.65;1.58;;;;;;;;;;4917098;29;20104;-67
2023/03/03 04:30:38;;;;;;;5.20;1.70;;;;;;;;;;4931778;28;20156;-67
2023/03/03 04:33:04;;;;;;;2.63;1.35;;;;;;;;;;4920496;29;20517;-67
2023/03/03 04:35:30;;;;;;;3.22;1.42;;;;;;;;;;4918836;29;20066;-67
2023/03/03 04:37:57;;;;;;;8.63;1.40;;;;;;;;;;4920115;29;20107;-68
2023/03/03 04:40:23;;;;;;;3.58;1.17;;;;;;;;;;4921694;29;20082;-68
2023/03/03 04:42:49;;;;;;;2.47;1.25;;;;;;;;;;4920378;29;20060;-67
2023/03/03 04:45:15;;;;;;;4.68;1.30;;;;;;;;;;4918990;29;20043;-67
2023/03/03 04:47:42;;;;;;;3.97;1.60;;;;;;;;;;4927833;29;20266;-67
2023/03/03 04:50:09;;;;;;;3.92;1.33;;;;;;;;;;4928568;29;20047;-67
2023/03/03 04:52:35;;;;;;;2.97;1.40;;;;;;;;;;4938774;28;20095;-67
2023/03/03 04:55:01;;;;;;;5.43;1.67;;;;;;;;;;4923439;29;20087;-67
2023/03/03 04:57:27;;;;;;;5.10;2.03;;;;;;;;;;4925957;29;20058;-68
2023/03/03 04:59:54;;;;;;;3.83;1.35;;;;;;;;;;4926162;29;20677;-67
2023/03/03 05:02:20;;;;;;;6.28;1.90;;;;;;;;;;4924618;29;20406;-67
2023/03/03 05:04:46;;;;;;;4.30;1.40;;;;;;;;;;4923314;29;20316;-67
2023/03/03 05:07:13;;;;;;;9.07;1.45;;;;;;;;;;4922863;29;20154;-67
2023/03/03 05:09:39;;;;;;;5.05;1.38;;;;;;;;;;4934186;28;20415;-67
2023/03/03 05:12:05;;;;;;;3.53;1.23;;;;;;;;;;4919597;29;20046;-68
2023/03/03 05:14:31;;;;;;;3.25;1.45;;;;;;;;;;4917733;29;20044;-67
2023/03/03 05:16:58;;;;;;;3.45;1.20;;;;;;;;;;4920002;29;20048;-67
2023/03/03 05:19:25;;;;;;;5.10;1.05;;;;;;;;;;4915906;29;20047;-67
2023/03/03 05:21:51;;;;;;;6.30;1.27;;;;;;;;;;4917753;29;20046;-67
2023/03/03 05:24:17;;;;;;;2.90;1.20;;;;;;;;;;4917518;29;20098;-66
2023/03/03 05:26:43;;;;;;;2.63;1.08;;;;;;;;;;4920853;29;20044;-66
2023/03/03 05:29:09;;;;;;;4.57;1.30;;;;;;;;;;4918372;28;20479;-66
2023/03/03 05:31:36;;;;;;;4.43;1.67;;;;;;;;;;4887530;29;20266;-66
2023/03/03 05:34:02;;;;;;;4.25;1.40;;;;;;;;;;4917622;29;20044;-70
2023/03/03 05:36:28;;;;;;;3.38;1.63;;;;;;;;;;4924374;29;20491;-65
2023/03/03 05:38:54;;;;;;;7.07;1.58;;;;;;;;;;4920557;29;20047;-65
2023/03/03 05:41:20;;;;;;;6.95;1.90;;;;;;;;;;4921575;29;20075;-66
2023/03/03 05:43:47;;;;;;;6.28;1.40;;;;;;;;;;4918357;29;20064;-66
2023/03/03 05:46:13;;;;;;;3.88;1.23;;;;;;;;;;4909554;29;20475;-66
2023/03/03 05:48:39;;;;;;;2.30;1.00;;;;;;;;;;4920962;29;20087;-66
2023/03/03 05:51:05;;;;;;;7.43;1.83;;;;;;;;;;4920803;29;20040;-66
2023/03/03 05:53:32;;;;;;;5.20;1.35;;;;;;;;;;4925896;29;20109;-66
2023/03/03 05:55:58;;;;;;;3.72;1.10;;;;;;;;;;4925659;29;20048;-77
2023/03/03 05:58:24;;;;;;;3.25;1.23;;;;;;;;;;4908527;29;20042;-66
2023/03/03 06:00:50;;;;;;;3.33;1.50;;;;;;;;;;4922998;29;20047;-66
2023/03/03 06:03:16;;;;;;;7.25;1.52;;;;;;;;;;4925683;29;20051;-66
2023/03/03 06:05:43;;;;;;;6.68;1.25;;;;;;;;;;4924102;29;20040;-66
2023/03/03 06:08:09;;;;;;;4.47;1.25;;;;;;;;;;4930168;29;20071;-67
2023/03/03 06:10:35;;;;;;;6.50;1.60;;;;;;;;;;4910286;29;20441;-66
2023/03/03 06:13:01;;;;;;;5.50;2.20;;;;;;;;;;4913282;29;20139;-66
2023/03/03 06:15:27;;;;;;;8.40;2.05;;;;;;;;;;4928662;29;20044;-67
2023/03/03 06:17:54;;;;;;;6.10;2.20;;;;;;;;;;4906572;29;20499;-66
2023/03/03 06:20:20;;;;;;;6.20;2.08;;;;;;;;;;4928807;29;20047;-66
2023/03/03 06:22:46;;;;;;;5.60;1.80;;;;;;;;;;4912751;29;20056;-66
2023/03/03 06:25:12;;;;;;;5.18;2.05;;;;;;;;;;4931859;29;20047;-66
2023/03/03 06:27:38;;;;;;;3.67;1.52;;;;;;;;;;4932313;29;20138;-67
2023/03/03 06:30:05;;;;;;;4.93;1.40;;;;;;;;;;4932921;29;20062;-66
2023/03/03 06:32:31;;;;;;;11.80;1.40;;;;;;;;;;4932307;29;20380;-66
2023/03/03 06:34:57;;;;;;;4.97;1.50;;;;;;;;;;4915650;29;20123;-67
2023/03/03 06:37:23;;;;;;;5.03;1.45;;;;;;;;;;4931542;29;20054;-67
2023/03/03 06:39:51;;;;;;;3.55;1.15;;;;;;;;;;4932988;29;20087;-67
2023/03/03 06:42:18;;;;;;;3.50;1.33;;;;;;;;;;4933046;29;20083;-67
2023/03/03 06:44:44;;;;;;;8.57;1.50;;;;;;;;;;4934590;29;20048;-67
2023/03/03 06:47:11;;;;;;;6.55;1.52;;;;;;;;;;4936379;29;20036;-67
2023/03/03 06:49:37;;;;;;;6.50;1.40;;;;;;;;;;4935663;29;20127;-67
2023/03/03 06:52:11;;;;;;;4.88;1.70;;;;;;;;;;4934983;29;20043;-67
2023/03/03 06:54:37;;;;;;;4.68;1.33;;;;;;;;;;4931019;29;20561;-67
2023/03/03 06:57:11;;;;;;;2.67;1.23;;;;;;;;;;4932250;29;20039;-67
2023/03/03 06:59:37;;;;;;;9.98;1.50;;;;;;;;;;4931727;29;20395;-67
2023/03/03 07:02:10;;;;;;;7.05;1.30;;;;;;;;;;4936794;29;20079;-67
2023/03/03 07:04:38;;;;;;;5.38;1.30;;;;;;;;;;4936126;29;20059;-67
2023/03/03 07:07:15;;;;;;;6.63;1.63;;;;;;;;;;4935374;29;20052;-67
2023/03/03 07:09:43;;;;;;;4.70;1.58;;;;;;;;;;4928441;29;20144;-67
2023/03/03 07:12:10;;;;;;;4.65;1.67;;;;;;;;;;4935961;29;20063;-67
2023/03/03 07:14:41;;;;;;;3.65;1.38;;;;;;;;;;4935099;29;20503;-67
2023/03/03 07:17:10;;;;;;;4.65;2.00;;;;;;;;;;4935544;29;20447;-67
2023/03/03 07:19:39;;;;;;;6.22;1.58;;;;;;;;;;4918086;29;20099;-66
2023/03/03 07:22:12;;;;;;;4.93;1.80;;;;;;;;;;4935855;29;20453;-66
2023/03/03 07:24:38;;;;;;;7.43;2.17;;;;;;;;;;4933293;29;20480;-66
2023/03/03 07:27:06;;;;;;;4.75;1.90;;;;;;;;;;4935103;29;20127;-66
2023/03/03 07:29:33;;;;;;;4.43;1.90;;;;;;;;;;4935249;29;20438;-66
2023/03/03 07:32:00;;;;;;;8.13;2.15;;;;;;;;;;4935320;29;20070;-66
2023/03/03 07:34:36;;;;;;;6.50;1.73;;;;;;;;;;4933519;29;20048;-67
2023/03/03 07:37:05;;;;;;;8.90;2.70;;;;;;;;;;4918226;29;20348;-67
2023/03/03 07:39:34;;;;;;;6.07;2.00;;;;;;;;;;4935448;29;20083;-66
2023/03/03 07:42:07;;;;;;;8.20;1.98;;;;;;;;;;4935158;29;20158;-66
2023/03/03 07:44:36;;;;;;;3.50;1.60;;;;;;;;;;4935241;29;20090;-66
2023/03/03 07:47:15;;;;;;;8.02;1.90;;;;;;;;;;4935643;29;20044;-66
2023/03/03 07:49:42;;;;;;;8.05;2.25;;;;;;;;;;4930088;29;20051;-66
2023/03/03 07:52:20;;;;;;;8.63;2.20;;;;;;;;;;4935270;29;20048;-67
2023/03/03 07:54:46;;;;;;;11.57;2.10;;;;;;;;;;4930084;29;20126;-66
2023/03/03 07:57:19;;;;;;;10.73;2.45;;;;;;;;;;4934746;29;20039;-66
2023/03/03 07:59:54;;;;;;;5.03;2.27;;;;;;;;;;4935060;29;20160;-66
2023/03/03 08:02:24;;;;;;;6.95;2.40;;;;;;;;;;4932900;29;20056;-66
2023/03/03 08:04:51;;;;;;;17.50;3.60;;;;;;;;;;4933557;29;20047;-66
2023/03/03 08:07:18;;;;;;;9.90;2.80;;;;;;;;;;4934963;29;20074;-66
2023/03/03 08:09:47;;;;;;;9.07;3.53;;;;;;;;;;4934367;29;20071;-66
2023/03/03 08:12:18;;;;;;;11.70;4.22;;;;;;;;;;4935229;29;20466;-66
2023/03/03 08:14:44;;;;;;;15.68;3.80;;;;;;;;;;4915155;29;20087;-66
2023/03/03 08:17:14;;;;;;;11.30;4.30;;;;;;;;;;4931208;29;20044;-67
2023/03/03 08:19:40;;;;;;;10.60;3.28;;;;;;;;;;4917268;29;20083;-67
2023/03/03 08:22:19;;;;;;;13.35;4.20;;;;;;;;;;4934771;29;20399;-66
2023/03/03 08:24:45;;;;;;;13.27;4.47;;;;;;;;;;4916473;29;20075;-67
2023/03/03 08:27:11;;;;;;;11.57;3.35;;;;;;;;;;4917933;29;20067;-67
2023/03/03 08:29:38;;;;;;;8.10;3.22;;;;;;;;;;4934014;29;20479;-66
2023/03/03 08:32:04;;;;;;;8.45;3.20;;;;;;;;;;4931983;29;20048;-67
2023/03/03 08:34:31;;;;;;;11.65;3.00;;;;;;;;;;4933925;29;20406;-67
2023/03/03 08:36:57;;;;;;;9.73;2.15;;;;;;;;;;4933612;29;20054;-67
2023/03/03 08:39:23;;;;;;;8.77;3.08;;;;;;;;;;4931662;29;20040;-67
2023/03/03 08:41:50;;;;;;;9.52;2.53;;;;;;;;;;4932863;29;20144;-67
2023/03/03 08:44:16;;;;;;;5.70;1.95;;;;;;;;;;4933811;29;20074;-67
2023/03/03 08:46:42;;;;;;;4.68;1.70;;;;;;;;;;4933199;29;20064;-67
2023/03/03 08:49:09;;;;;;;8.60;1.88;;;;;;;;;;4930594;29;20054;-67
2023/03/03 08:51:35;;;;;;;4.68;1.70;;;;;;;;;;4916276;29;20051;-67
2023/03/03 08:54:01;;;;;;;5.63;1.60;;;;;;;;;;4917083;29;20056;-68
2023/03/03 08:56:27;;;;;;;6.10;1.30;;;;;;;;;;4897680;29;20043;-67
2023/03/03 08:58:54;;;;;;;28.80;2.33;;;;;;;;;;4916500;29;20051;-67
2023/03/03 09:01:20;;;;;;;5.03;1.33;;;;;;;;;;4916440;29;20050;-67
2023/03/03 09:03:46;;;;;;;7.97;2.00;;;;;;;;;;4933779;29;20451;-68
2023/03/03 09:06:12;;;;;;;4.18;1.30;;;;;;;;;;4932797;29;20071;-68
2023/03/03 09:08:38;;;;;;;6.43;1.60;;;;;;;;;;4929810;29;20047;-67
2023/03/03 09:11:12;;;;;;;9.38;2.00;;;;;;;;;;4933613;29;20456;-68
2023/03/03 09:13:38;;;;;;;6.07;1.25;;;;;;;;;;4933109;29;20155;-67
2023/03/03 09:16:17;;;;;;;9.65;1.20;;;;;;;;;;4916246;29;20114;-68
2023/03/03 09:18:43;;;;;;;5.35;1.13;;;;;;;;;;4914571;29;20067;-67
2023/03/03 09:21:18;;;;;;;6.10;1.27;;;;;;;;;;4930896;29;20039;-68
2023/03/03 09:23:49;;;;;;;6.65;1.30;;;;;;;;;;4931977;29;20048;-68
2023/03/03 09:26:26;;;;;;;5.22;1.13;;;;;;;;;;4932664;29;20047;-67
2023/03/03 09:28:54;;;;;;;8.13;1.65;;;;;;;;;;4928846;28;20059;-68
2023/03/03 09:31:25;;;;;;;7.07;1.08;;;;;;;;;;4933295;29;20047;-67
2023/03/03 09:33:54;;;;;;;4.78;0.70;;;;;;;;;;4929829;29;20115;-68
2023/03/03 09:36:20;;;;;;;6.47;0.65;;;;;;;;;;4929540;29;20397;-68
2023/03/03 09:38:47;;;;;;;4.72;0.75;;;;;;;;;;4933450;29;20075;-68
2023/03/03 09:41:24;;;;;;;6.97;0.88;;;;;;;;;;4914957;29;20130;-68
2023/03/03 09:43:57;;;;;;;2.58;0.88;;;;;;;;;;4931652;29;20048;-68
2023/03/03 09:46:32;;;;;;;8.68;1.20;;;;;;;;;;4931940;29;20075;-68
2023/03/03 09:49:07;;;;;;;6.93;1.13;;;;;;;;;;4928169;29;20059;-68
2023/03/03 09:51:52;;;;;;;6.13;1.05;;;;;;;;;;4933059;29;20451;-68
2023/03/03 09:54:19;;;;;;;7.40;1.30;;;;;;;;;;4931411;29;20047;-67
2023/03/03 09:56:55;;;;;;;6.00;1.25;;;;;;;;;;4928534;29;20040;-68
2023/03/03 09:59:34;;;;;;;3.83;0.77;;;;;;;;;;4933132;29;20039;-68
2023/03/03 10:02:07;;;;;;;5.13;1.13;;;;;;;;;;4915491;29;20048;-68
2023/03/03 10:04:38;;;;;;;7.35;0.80;;;;;;;;;;4932996;29;20070;-68
2023/03/03 10:07:08;;;;;;;3.00;0.77;;;;;;;;;;4909825;29;20500;-65
2023/03/03 10:09:55;;;;;;;4.85;0.70;;;;;;;;;;4931869;29;20383;-67
2023/03/03 10:12:28;;;;;;;3.78;0.60;;;;;;;;;;4933240;29;20114;-67
2023/03/03 10:15:02;;;;;;;3.28;0.68;;;;;;;;;;4929644;29;20110;-67
2023/03/03 10:17:28;;;;;;;;;;;;;;;;;;4932069;29;20039;-67
2023/03/03 10:20:04;;;;;;;5.32;0.70;;;;;;;;;;4932689;29;19990;-67
2023/03/03 10:22:33;;;;;;;5.20;1.02;;;;;;;;;;4914613;29;20051;-67
2023/03/03 10:25:16;;;;;;;4.13;0.80;;;;;;;;;;4932798;29;20154;-67
2023/03/03 10:27:48;;;;;;;11.77;1.20;;;;;;;;;;4930907;29;20040;-67
2023/03/03 10:30:25;;;;;;;4.15;0.68;;;;;;;;;;4923742;29;20190;-67
2023/03/03 10:32:57;;;;;;;4.63;0.70;;;;;;;;;;4933172;29;20044;-67
2023/03/03 10:35:35;;;;;;;7.07;0.95;;;;;;;;;;4932430;29;20052;-67
2023/03/03 10:38:09;;;;;;;7.05;1.15;;;;;;;;;;4911754;29;20435;-67
2023/03/03 10:40:39;;;;;;;5.57;1.10;;;;;;;;;;4929696;29;20712;-67
2023/03/03 10:43:07;;;;;;;5.65;1.00;;;;;;;;;;4931394;29;20048;-67
2023/03/03 10:45:43;;;;;;;5.35;0.93;;;;;;;;;;4914756;29;20102;-67
2023/03/03 10:48:19;;;;;;;7.22;0.95;;;;;;;;;;4926831;29;20171;-67
2023/03/03 10:50:49;;;;;;;4.13;0.82;;;;;;;;;;4929389;29;20055;-67
2023/03/03 10:53:31;;;;;;;7.63;1.08;;;;;;;;;;4932711;29;20096;-67
2023/03/03 10:56:16;;;;;;;7.95;0.88;;;;;;;;;;4928427;29;20051;-67
2023/03/03 10:58:45;;;;;;;7.80;1.27;;;;;;;;;;4931662;29;20048;-67
2023/03/03 11:01:17;;;;;;;6.28;1.20;;;;;;;;;;4931806;29;20051;-67
2023/03/03 11:03:56;;;;;;;8.45;1.20;;;;;;;;;;4929469;29;20051;-67
2023/03/03 11:06:34;;;;;;;15.18;1.67;;;;;;;;;;4932164;29;20067;-67
2023/03/03 11:09:06;;;;;;;7.43;0.93;;;;;;;;;;4914799;29;20103;-67
2023/03/03 11:11:40;;;;;;;14.30;1.42;;;;;;;;;;4914443;29;20526;-67
2023/03/03 11:14:11;;;;;;;9.38;2.22;;;;;;;;;;4932366;29;20378;-67
2023/03/03 11:16:38;;;;;;;7.38;1.10;;;;;;;;;;4932501;29;20447;-66
2023/03/03 11:19:11;;;;;;;4.85;1.27;;;;;;;;;;4931697;29;20058;-66
2023/03/03 11:21:41;;;;;;;4.67;1.43;;;;;;;;;;4914802;29;20142;-67
2023/03/03 11:24:19;;;;;;;6.18;1.30;;;;;;;;;;4932201;29;20069;-67
2023/03/03 11:26:49;;;;;;;7.25;1.00;;;;;;;;;;4931465;29;20143;-67
2023/03/03 11:29:31;;;;;;;9.95;1.52;;;;;;;;;;4915393;29;20052;-67
2023/03/03 11:32:08;;;;;;;8.30;1.58;;;;;;;;;;4931439;29;20610;-67
2023/03/03 11:34:50;;;;;;;8.38;2.30;;;;;;;;;;4928439;29;20051;-67
2023/03/03 11:37:23;;;;;;;5.63;1.05;;;;;;;;;;4932148;29;20086;-67
2023/03/03 11:39:51;;;;;;;8.67;1.57;;;;;;;;;;4929252;29;20127;-67
2023/03/03 11:42:23;;;;;;;11.27;1.92;;;;;;;;;;4932716;29;20044;-67
2023/03/03 11:44:52;;;;;;;6.32;1.10;;;;;;;;;;4930293;29;20047;-67
2023/03/03 11:47:21;;;;;;;12.27;1.27;;;;;;;;;;4933458;29;20046;-67
2023/03/03 11:50:05;;;;;;;7.35;1.45;;;;;;;;;;4933639;29;20095;-67
2023/03/03 11:52:40;;;;;;;8.45;1.42;;;;;;;;;;4932351;29;20182;-67
2023/03/03 11:55:13;;;;;;;11.07;1.83;;;;;;;;;;4929887;29;20063;-67
2023/03/03 11:57:42;;;;;;;11.07;1.85;;;;;;;;;;4917621;29;20107;-67
2023/03/03 12:00:24;;;;;;;8.25;1.60;;;;;;;;;;4935020;29;20499;-67
2023/03/03 12:03:12;;;;;;;10.25;1.95;;;;;;;;;;4934077;29;20526;-67
2023/03/03 12:05:45;;;;;;;12.68;2.13;;;;;;;;;;4934557;29;20048;-67
2023/03/03 12:08:21;;;;;;;14.52;2.03;;;;;;;;;;4913099;29;20055;-67
2023/03/03 12:10:51;;;;;;;9.10;1.70;;;;;;;;;;4934521;29;20040;-67
2023/03/03 12:13:23;;;;;;;18.40;2.83;;;;;;;;;;4933625;29;20043;-67
2023/03/03 12:15:55;;;;;;;12.25;1.83;;;;;;;;;;4931411;29;20091;-67
2023/03/03 12:18:27;;;;;;;7.95;1.40;;;;;;;;;;4927409;29;20118;-67
2023/03/03 12:20:54;;;;;;;11.68;2.50;;;;;;;;;;4917948;29;20054;-67
2023/03/03 12:23:21;;;;;;;12.40;1.70;;;;;;;;;;4933630;29;20074;-67
2023/03/03 12:25:54;;;;;;;11.95;1.90;;;;;;;;;;4932800;29;20334;-66
2023/03/03 12:28:22;;;;;;;11.18;1.90;;;;;;;;;;4935076;29;20046;-66
2023/03/03 12:30:52;;;;;;;9.60;1.92;;;;;;;;;;4933163;29;20056;-66
2023/03/03 12:33:21;;;;;;;13.35;2.63;;;;;;;;;;4917450;29;20047;-67
2023/03/03 12:36:06;;;;;;;10.63;1.83;;;;;;;;;;4917454;29;20063;-66
2023/03/03 12:38:58;;;;;;;17.63;3.03;;;;;;;;;;4930063;29;20078;-67
2023/03/03 12:41:30;;;;;;;14.38;2.75;;;;;;;;;;4931254;29;20036;-67
2023/03/03 12:43:57;;;;;;;14.15;2.22;;;;;;;;;;4916090;29;20502;-67
2023/03/03 12:46:29;;;;;;;10.18;1.92;;;;;;;;;;4934408;29;20497;-67
2023/03/03 12:48:55;;;;;;;17.15;2.42;;;;;;;;;;4912887;29;20059;-67
2023/03/03 12:51:21;;;;;;;13.55;2.20;;;;;;;;;;4932060;29;20055;-66
2023/03/03 12:54:02;;;;;;;8.90;2.60;;;;;;;;;;4933850;29;20043;-66
2023/03/03 12:56:33;;;;;;;13.07;2.10;;;;;;;;;;4912752;29;20054;-67
2023/03/03 12:59:00;;;;;;;16.15;2.72;;;;;;;;;;4933283;29;20130;-67
2023/03/03 13:01:36;;;;;;;11.60;2.58;;;;;;;;;;4932216;29;20047;-66
2023/03/03 13:04:07;;;;;;;16.30;3.22;;;;;;;;;;4930318;29;20056;-66
2023/03/03 13:06:34;;;;;;;18.48;3.42;;;;;;;;;;4933925;29;20503;-66
2023/03/03 13:09:01;;;;;;;18.30;3.00;;;;;;;;;;4934060;29;20055;-66
2023/03/03 13:11:49;;;;;;;17.60;3.95;;;;;;;;;;4929104;29;20044;-66
2023/03/03 13:14:22;;;;;;;14.02;2.70;;;;;;;;;;4931533;29;20052;-66
2023/03/03 13:17:01;;;;;;;20.25;3.17;;;;;;;;;;4933617;29;20114;-66
2023/03/03 13:19:40;;;;;;;21.83;3.53;;;;;;;;;;4926592;29;20562;-67
2023/03/03 13:22:11;;;;;;;25.90;3.63;;;;;;;;;;4929331;29;20055;-66
2023/03/03 13:24:40;;;;;;;26.45;4.82;;;;;;;;;;4933267;29;20055;-66
2023/03/03 13:27:09;;;;;;;23.60;3.28;;;;;;;;;;4932909;29;20047;-66
2023/03/03 13:29:41;;;;;;;25.60;3.85;;;;;;;;;;4933220;29;20122;-66
2023/03/03 13:32:21;;;;;;;18.70;3.45;;;;;;;;;;4930087;29;20111;-66
2023/03/03 13:34:47;;;;;;;16.15;3.38;;;;;;;;;;4933296;29;20126;-66
2023/03/03 13:37:23;;;;;;;28.38;4.03;;;;;;;;;;4916766;29;20043;-66
2023/03/03 13:39:53;;;;;;;26.02;3.75;;;;;;;;;;4925979;29;20127;-66
2023/03/03 13:42:26;;;;;;;26.30;3.97;;;;;;;;;;4933024;29;20407;-66
2023/03/03 13:44:52;;;;;;;20.98;4.35;;;;;;;;;;4931618;29;20060;-66
2023/03/03 13:47:28;;;;;;;20.73;3.30;;;;;;;;;;4914984;29;20039;-66
2023/03/03 13:49:55;;;;;;;22.27;3.58;;;;;;;;;;4928911;29;20039;-66
2023/03/03 13:52:22;;;;;;;24.92;4.45;;;;;;;;;;4933052;29;20499;-66
2023/03/03 13:55:04;;;;;;;24.42;4.32;;;;;;;;;;4911533;29;20039;-66
2023/03/03 13:57:39;;;;;;;29.08;3.88;;;;;;;;;;4932613;29;20050;-66
2023/03/03 14:00:06;;;;;;;22.40;4.05;;;;;;;;;;4929287;29;20150;-66
2023/03/03 14:02:33;;;;;;;18.17;3.25;;;;;;;;;;4931341;29;20087;-67
2023/03/03 14:05:11;;;;;;;17.48;3.25;;;;;;;;;;4929784;29;20048;-66
2023/03/03 14:08:06;;;;;;;20.73;3.55;;;;;;;;;;4915615;29;20486;-66
2023/03/03 14:10:35;;;;;;;20.02;3.00;;;;;;;;;;4932132;29;20051;-66
2023/03/03 14:13:07;;;;;;;24.83;3.72;;;;;;;;;;4914828;29;20487;-66
2023/03/03 14:15:35;;;;;;;23.77;3.42;;;;;;;;;;4932030;29;20040;-67
2023/03/03 14:18:05;;;;;;;19.20;3.25;;;;;;;;;;4911800;29;20404;-66
2023/03/03 14:20:33;;;;;;;21.13;3.40;;;;;;;;;;4931765;29;20119;-66
2023/03/03 14:23:04;;;;;;;29.10;4.70;;;;;;;;;;4931881;29;20404;-66
2023/03/03 14:25:57;;;;;;;24.67;3.47;;;;;;;;;;4929392;29;20048;-66
2023/03/03 14:28:25;;;;;;;20.17;3.97;;;;;;;;;;4929331;29;20047;-66
2023/03/03 14:30:55;;;;;;;33.55;4.13;;;;;;;;;;4929505;29;20134;-66
2023/03/03 14:33:25;;;;;;;24.00;4.03;;;;;;;;;;4928335;29;20083;-66
2023/03/03 14:35:51;;;;;;;15.30;2.78;;;;;;;;;;4932179;29;20510;-66
2023/03/03 14:38:18;;;;;;;22.05;3.42;;;;;;;;;;4932714;29;21277;-66
2023/03/03 14:40:46;;;;;;;26.05;3.75;;;;;;;;;;4932728;29;20076;-66
2023/03/03 14:43:26;;;;;;;25.17;4.05;;;;;;;;;;4914342;29;20047;-68
2023/03/03 14:45:53;;;;;;;29.58;4.65;;;;;;;;;;4915462;29;20115;-68
2023/03/03 14:48:21;;;;;;;31.67;4.93;;;;;;;;;;4928616;29;20095;-68
2023/03/03 14:50:49;;;;;;;24.60;3.20;;;;;;;;;;4931806;29;20077;-68
2023/03/03 14:53:15;;;;;;;18.33;3.45;;;;;;;;;;4912170;29;20051;-68